createdAt,value
2023-03-15T00:00:32.364Z,90.95
2023-03-15T00:01:32.337Z,89.81
2023-03-15T00:03:49.773Z,90.01
2023-03-15T00:04:49.737Z,89.91
2023-03-15T00:05:49.742Z,91.06
2023-03-15T00:06:49.711Z,91.89
2023-03-15T00:07:49.705Z,91.37
2023-03-15T00:08:49.697Z,92.31
2023-03-15T00:09:49.684Z,91.52
2023-03-15T00:10:49.682Z,90.95
2023-03-15T00:11:49.792Z,90.33
2023-03-15T00:12:49.648Z,90.16
2023-03-15T00:13:49.640Z,90.58
2023-03-15T00:14:49.625Z,91.31
2023-03-15T00:15:49.690Z,90.58
2023-03-15T00:16:49.760Z,90.37
2023-03-15T00:17:49.598Z,89.95
2023-03-15T00:18:49.582Z,89.85
2023-03-15T00:19:49.583Z,90.52
2023-03-15T00:20:49.577Z,90.00
2023-03-15T00:21:49.558Z,89.47
2023-03-15T00:22:49.553Z,88.75
2023-03-15T00:23:49.537Z,88.89
2023-03-15T00:24:49.522Z,89.26
2023-03-15T00:25:49.530Z,89.58
2023-03-15T00:26:49.497Z,88.89
2023-03-15T00:27:49.493Z,88.47
2023-03-15T00:28:49.478Z,88.99
2023-03-15T00:29:49.472Z,88.99
2023-03-15T00:30:49.520Z,89.20
2023-03-15T00:31:49.453Z,88.99
2023-03-15T00:32:49.509Z,89.14
2023-03-15T00:33:49.430Z,89.20
2023-03-15T00:34:49.419Z,88.82
2023-03-15T00:35:49.440Z,88.41
2023-03-15T00:36:49.396Z,90.39
2023-03-15T00:37:49.393Z,90.60
2023-03-15T00:38:49.379Z,91.12
2023-03-15T00:39:49.365Z,91.12
2023-03-15T00:40:49.359Z,91.12
2023-03-15T00:41:49.353Z,90.60
2023-03-15T00:42:49.334Z,90.66
2023-03-15T00:43:49.329Z,90.60
2023-03-15T00:44:49.312Z,90.56
2023-03-15T00:45:49.318Z,91.02
2023-03-15T00:46:49.366Z,91.33
2023-03-15T00:47:49.286Z,91.12
2023-03-15T00:48:49.280Z,90.60
2023-03-15T00:49:49.265Z,90.50
2023-03-15T00:50:49.278Z,90.28
2023-03-15T00:51:49.242Z,90.50
2023-03-15T00:52:49.229Z,90.18
2023-03-15T00:53:49.223Z,90.33
2023-03-15T00:54:49.211Z,90.75
2023-03-15T00:55:49.215Z,90.95
2023-03-15T00:56:49.191Z,90.12
2023-03-15T00:57:49.209Z,90.43
2023-03-15T00:58:49.170Z,90.47
2023-03-15T00:59:49.162Z,90.58
2023-03-15T01:00:49.158Z,90.16
2023-03-15T01:01:49.172Z,90.20
2023-03-15T01:02:49.173Z,90.72
2023-03-15T01:03:49.151Z,90.20
2023-03-15T01:04:49.104Z,90.52
2023-03-15T01:05:49.103Z,91.20
2023-03-15T01:06:49.079Z,90.83
2023-03-15T01:07:49.080Z,91.46
2023-03-15T01:08:49.060Z,91.14
2023-03-15T01:09:49.057Z,91.46
2023-03-15T01:10:49.047Z,93.17
2023-03-15T01:11:49.031Z,93.17
2023-03-15T01:12:49.020Z,93.80
2023-03-15T01:13:49.014Z,94.01
2023-03-15T01:14:48.998Z,94.01
2023-03-15T01:15:49.010Z,94.95
2023-03-15T01:16:48.977Z,94.64
2023-03-15T01:17:48.971Z,94.64
2023-03-15T01:18:48.962Z,93.59
2023-03-15T01:19:48.954Z,93.48
2023-03-15T01:20:48.946Z,93.52
2023-03-15T01:21:48.931Z,93.32
2023-03-15T01:22:48.925Z,93.01
2023-03-15T01:23:48.926Z,92.79
2023-03-15T01:24:48.913Z,93.11
2023-03-15T01:25:48.901Z,92.79
2023-03-15T01:26:48.873Z,92.69
2023-03-15T01:27:48.865Z,93.21
2023-03-15T01:28:48.854Z,93.01
2023-03-15T01:29:48.849Z,92.79
2023-03-15T01:30:49.863Z,92.38
2023-03-15T01:31:48.875Z,93.63
2023-03-15T01:32:48.839Z,94.99
2023-03-15T01:33:48.807Z,94.89
2023-03-15T01:34:48.790Z,95.09
2023-03-15T01:35:48.874Z,95.35
2023-03-15T01:36:48.771Z,94.89
2023-03-15T01:37:48.765Z,94.93
2023-03-15T01:38:48.755Z,94.62
2023-03-15T01:39:48.759Z,94.46
2023-03-15T01:40:48.747Z,94.99
2023-03-15T01:41:48.730Z,94.46
2023-03-15T01:42:48.714Z,94.40
2023-03-15T01:43:48.717Z,93.95
2023-03-15T01:44:48.691Z,93.57
2023-03-15T01:45:48.699Z,93.63
2023-03-15T01:46:48.680Z,93.57
2023-03-15T01:47:48.662Z,93.26
2023-03-15T01:48:48.652Z,93.61
2023-03-15T01:49:48.641Z,93.82
2023-03-15T01:50:48.639Z,93.40
2023-03-15T01:51:48.624Z,93.71
2023-03-15T01:52:48.606Z,93.71
2023-03-15T01:53:48.601Z,94.03
2023-03-15T01:54:48.593Z,94.13
2023-03-15T01:55:48.593Z,93.26
2023-03-15T01:56:48.569Z,93.61
2023-03-15T01:57:48.558Z,92.98
2023-03-15T01:58:48.545Z,92.98
2023-03-15T01:59:48.540Z,92.57
2023-03-15T02:00:48.587Z,93.19
2023-03-15T02:01:48.541Z,91.77
2023-03-15T02:02:48.504Z,90.61
2023-03-15T02:03:48.494Z,91.24
2023-03-15T02:04:48.495Z,90.83
2023-03-15T02:05:48.489Z,91.14
2023-03-15T02:06:48.468Z,91.35
2023-03-15T02:07:48.462Z,91.08
2023-03-15T02:08:48.443Z,90.76
2023-03-15T02:09:48.440Z,91.71
2023-03-15T02:10:48.456Z,91.50
2023-03-15T02:11:48.419Z,92.19
2023-03-15T02:12:48.402Z,92.65
2023-03-15T02:13:48.396Z,92.92
2023-03-15T02:14:48.396Z,93.08
2023-03-15T02:15:48.380Z,93.24
2023-03-15T02:16:48.429Z,93.02
2023-03-15T02:17:48.357Z,92.82
2023-03-15T02:18:48.347Z,92.71
2023-03-15T02:19:48.344Z,92.61
2023-03-15T02:20:48.327Z,92.61
2023-03-15T02:21:48.322Z,92.50
2023-03-15T02:22:48.301Z,93.76
2023-03-15T02:23:48.292Z,93.76
2023-03-15T02:24:48.284Z,93.76
2023-03-15T02:25:48.271Z,93.87
2023-03-15T02:26:48.269Z,93.76
2023-03-15T02:27:48.248Z,94.07
2023-03-15T02:28:48.236Z,93.87
2023-03-15T02:29:48.229Z,93.97
2023-03-15T02:30:48.218Z,93.97
2023-03-15T02:31:48.248Z,93.76
2023-03-15T02:32:48.239Z,94.07
2023-03-15T02:33:48.188Z,94.18
2023-03-15T02:34:48.179Z,94.13
2023-03-15T02:35:48.181Z,93.61
2023-03-15T02:36:48.167Z,93.40
2023-03-15T02:37:48.148Z,93.82
2023-03-15T02:38:48.133Z,93.55
2023-03-15T02:39:48.135Z,93.30
2023-03-15T02:40:48.116Z,93.08
2023-03-15T02:41:48.124Z,93.08
2023-03-15T02:42:48.101Z,93.19
2023-03-15T02:43:48.089Z,93.08
2023-03-15T02:44:48.074Z,92.88
2023-03-15T02:45:48.098Z,92.57
2023-03-15T02:46:48.069Z,92.77
2023-03-15T02:47:48.048Z,92.25
2023-03-15T02:48:48.036Z,92.77
2023-03-15T02:49:48.025Z,92.77
2023-03-15T02:50:48.014Z,92.77
2023-03-15T02:51:48.019Z,92.77
2023-03-15T02:52:47.996Z,92.14
2023-03-15T02:53:47.986Z,92.04
2023-03-15T02:54:47.976Z,91.62
2023-03-15T02:55:54.152Z,91.52
2023-03-15T02:56:47.963Z,92.67
2023-03-15T02:57:47.944Z,93.61
2023-03-15T02:58:47.934Z,93.51
2023-03-15T02:59:47.925Z,93.04
2023-03-15T03:00:47.932Z,92.83
2023-03-15T03:01:47.915Z,93.15
2023-03-15T03:02:47.976Z,92.83
2023-03-15T03:03:47.879Z,92.38
2023-03-15T03:04:47.874Z,92.42
2023-03-15T03:05:47.865Z,92.52
2023-03-15T03:06:47.858Z,92.16
2023-03-15T03:07:47.840Z,92.69
2023-03-15T03:08:47.845Z,92.16
2023-03-15T03:09:47.823Z,92.58
2023-03-15T03:10:47.816Z,92.48
2023-03-15T03:11:47.814Z,92.79
2023-03-15T03:12:47.792Z,91.50
2023-03-15T03:13:47.774Z,91.64
2023-03-15T03:14:47.771Z,91.18
2023-03-15T03:15:47.761Z,91.43
2023-03-15T03:16:47.783Z,90.49
2023-03-15T03:17:47.734Z,91.12
2023-03-15T03:18:47.729Z,91.12
2023-03-15T03:19:47.717Z,92.06
2023-03-15T03:20:47.705Z,92.44
2023-03-15T03:21:47.703Z,91.35
2023-03-15T03:22:47.698Z,91.50
2023-03-15T03:23:47.672Z,92.29
2023-03-15T03:24:47.665Z,92.08
2023-03-15T03:25:47.646Z,91.46
2023-03-15T03:26:47.651Z,91.46
2023-03-15T03:27:47.635Z,91.14
2023-03-15T03:28:47.632Z,92.40
2023-03-15T03:29:47.604Z,90.83
2023-03-15T03:30:47.673Z,90.93
2023-03-15T03:31:47.599Z,90.62
2023-03-15T03:32:47.618Z,91.25
2023-03-15T03:33:47.572Z,90.72
2023-03-15T03:34:47.560Z,90.83
2023-03-15T03:35:47.598Z,90.93
2023-03-15T03:36:47.539Z,90.62
2023-03-15T03:37:47.544Z,90.62
2023-03-15T03:38:47.525Z,90.26
2023-03-15T03:39:47.504Z,90.78
2023-03-15T03:40:47.496Z,90.26
2023-03-15T03:41:47.489Z,90.47
2023-03-15T03:42:47.509Z,90.78
2023-03-15T03:43:47.464Z,89.84
2023-03-15T03:44:47.462Z,90.01
2023-03-15T03:45:47.473Z,90.85
2023-03-15T03:46:47.431Z,90.58
2023-03-15T03:47:47.434Z,90.78
2023-03-15T03:48:47.409Z,90.43
2023-03-15T03:49:47.394Z,90.43
2023-03-15T03:50:47.391Z,90.43
2023-03-15T03:51:47.382Z,90.43
2023-03-15T03:52:47.378Z,90.75
2023-03-15T03:53:47.353Z,90.95
2023-03-15T03:54:47.349Z,90.08
2023-03-15T03:55:47.333Z,90.18
2023-03-15T03:56:47.326Z,89.87
2023-03-15T03:57:47.328Z,91.02
2023-03-15T03:58:47.300Z,90.60
2023-03-15T03:59:47.291Z,90.39
2023-03-15T04:00:47.287Z,90.28
2023-03-15T04:01:47.264Z,90.28
2023-03-15T04:02:47.343Z,90.39
2023-03-15T04:03:47.252Z,89.97
2023-03-15T04:04:47.286Z,88.93
2023-03-15T04:05:47.225Z,88.62
2023-03-15T04:06:47.212Z,88.47
2023-03-15T04:07:47.218Z,89.14
2023-03-15T04:08:47.216Z,88.68
2023-03-15T04:09:47.186Z,88.57
2023-03-15T04:10:47.172Z,88.78
2023-03-15T04:11:47.161Z,88.57
2023-03-15T04:12:47.170Z,88.89
2023-03-15T04:13:47.147Z,89.31
2023-03-15T04:14:47.138Z,88.99
2023-03-15T04:15:47.157Z,88.78
2023-03-15T04:16:47.124Z,88.47
2023-03-15T04:17:47.105Z,88.57
2023-03-15T04:18:47.092Z,88.16
2023-03-15T04:19:47.210Z,87.95
2023-03-15T04:20:47.082Z,86.97
2023-03-15T04:21:47.078Z,87.49
2023-03-15T04:22:47.063Z,87.49
2023-03-15T04:23:47.036Z,87.39
2023-03-15T04:24:47.033Z,87.39
2023-03-15T04:25:47.017Z,87.60
2023-03-15T04:26:47.012Z,87.60
2023-03-15T04:27:47.008Z,87.91
2023-03-15T04:28:46.998Z,87.81
2023-03-15T04:29:46.979Z,88.01
2023-03-15T04:30:46.971Z,87.45
2023-03-15T04:31:46.968Z,87.24
2023-03-15T04:32:46.983Z,87.24
2023-03-15T04:33:46.935Z,87.35
2023-03-15T04:34:46.933Z,87.66
2023-03-15T04:35:46.998Z,87.66
2023-03-15T04:36:46.906Z,87.45
2023-03-15T04:37:46.927Z,87.83
2023-03-15T04:38:46.895Z,87.55
2023-03-15T04:39:46.878Z,87.97
2023-03-15T04:40:46.872Z,88.70
2023-03-15T04:41:46.856Z,88.81
2023-03-15T04:42:46.860Z,88.76
2023-03-15T04:43:46.837Z,88.76
2023-03-15T04:44:46.832Z,88.60
2023-03-15T04:45:46.816Z,88.70
2023-03-15T04:46:46.930Z,88.49
2023-03-15T04:47:46.868Z,88.35
2023-03-15T04:48:46.784Z,89.22
2023-03-15T04:49:46.808Z,88.39
2023-03-15T04:50:46.765Z,88.70
2023-03-15T04:51:46.749Z,87.45
2023-03-15T04:52:46.758Z,87.66
2023-03-15T04:53:46.739Z,87.97
2023-03-15T04:54:46.726Z,87.45
2023-03-15T04:55:46.712Z,87.45
2023-03-15T04:56:46.708Z,88.70
2023-03-15T04:57:46.700Z,88.39
2023-03-15T04:58:46.684Z,88.56
2023-03-15T04:59:46.674Z,88.24
2023-03-15T05:00:46.686Z,88.76
2023-03-15T05:01:46.665Z,88.24
2023-03-15T05:02:46.655Z,88.87
2023-03-15T05:03:46.634Z,87.41
2023-03-15T05:04:46.623Z,87.83
2023-03-15T05:05:46.610Z,88.08
2023-03-15T05:06:46.599Z,88.04
2023-03-15T05:07:46.600Z,88.56
2023-03-15T05:08:46.585Z,88.56
2023-03-15T05:09:46.564Z,88.35
2023-03-15T05:10:46.562Z,88.24
2023-03-15T05:11:46.556Z,88.87
2023-03-15T05:12:46.550Z,88.45
2023-03-15T05:13:46.520Z,88.35
2023-03-15T05:14:46.560Z,88.04
2023-03-15T05:15:46.504Z,88.56
2023-03-15T05:16:46.493Z,88.45
2023-03-15T05:17:46.572Z,88.87
2023-03-15T05:18:46.473Z,88.76
2023-03-15T05:19:46.466Z,88.87
2023-03-15T05:20:46.458Z,87.99
2023-03-15T05:21:46.444Z,88.87
2023-03-15T05:22:46.439Z,88.98
2023-03-15T05:23:46.430Z,88.98
2023-03-15T05:24:46.414Z,89.08
2023-03-15T05:25:46.396Z,88.98
2023-03-15T05:26:46.395Z,88.62
2023-03-15T05:27:46.471Z,90.12
2023-03-15T05:28:46.369Z,90.44
2023-03-15T05:29:46.355Z,90.39
2023-03-15T05:30:46.350Z,90.54
2023-03-15T05:31:46.362Z,90.70
2023-03-15T05:32:46.392Z,90.85
2023-03-15T05:33:46.313Z,92.06
2023-03-15T05:34:46.304Z,92.21
2023-03-15T05:35:46.393Z,92.83
2023-03-15T05:36:46.287Z,92.62
2023-03-15T05:37:46.293Z,93.20
2023-03-15T05:38:46.262Z,93.24
2023-03-15T05:39:46.254Z,93.46
2023-03-15T05:40:46.307Z,93.56
2023-03-15T05:41:46.231Z,93.41
2023-03-15T05:42:46.228Z,93.73
2023-03-15T05:43:46.207Z,93.35
2023-03-15T05:44:46.227Z,93.66
2023-03-15T05:45:46.239Z,94.14
2023-03-15T05:46:46.201Z,94.39
2023-03-15T05:47:46.180Z,94.43
2023-03-15T05:48:46.158Z,94.70
2023-03-15T05:49:46.145Z,94.70
2023-03-15T05:50:46.137Z,94.49
2023-03-15T05:51:46.123Z,94.49
2023-03-15T05:52:46.127Z,94.85
2023-03-15T05:53:46.473Z,95.54
2023-03-15T05:54:46.097Z,95.23
2023-03-15T05:55:46.083Z,95.12
2023-03-15T05:56:46.078Z,94.81
2023-03-15T05:57:46.064Z,95.06
2023-03-15T05:58:46.053Z,95.23
2023-03-15T05:59:46.037Z,95.12
2023-03-15T06:00:46.031Z,95.02
2023-03-15T06:01:46.018Z,95.12
2023-03-15T06:02:46.022Z,94.60
2023-03-15T06:03:46.075Z,94.92
2023-03-15T06:04:45.983Z,94.81
2023-03-15T06:05:45.984Z,95.23
2023-03-15T06:06:45.975Z,95.75
2023-03-15T06:07:45.963Z,95.64
2023-03-15T06:08:45.943Z,95.54
2023-03-15T06:09:45.930Z,95.23
2023-03-15T06:10:45.921Z,95.64
2023-03-15T06:11:45.906Z,95.64
2023-03-15T06:12:45.908Z,95.75
2023-03-15T06:13:45.898Z,95.43
2023-03-15T06:14:45.879Z,95.27
2023-03-15T06:15:45.866Z,95.33
2023-03-15T06:16:45.893Z,95.54
2023-03-15T06:17:45.845Z,95.33
2023-03-15T06:18:45.848Z,95.85
2023-03-15T06:19:45.821Z,95.64
2023-03-15T06:20:45.812Z,95.54
2023-03-15T06:21:45.823Z,95.95
2023-03-15T06:22:45.792Z,95.54
2023-03-15T06:23:45.793Z,95.75
2023-03-15T06:24:45.771Z,96.00
2023-03-15T06:25:45.756Z,95.95
2023-03-15T06:26:45.750Z,96.58
2023-03-15T06:27:45.743Z,95.95
2023-03-15T06:28:45.740Z,95.95
2023-03-15T06:29:45.719Z,95.95
2023-03-15T06:30:45.739Z,95.64
2023-03-15T06:31:45.705Z,95.64
2023-03-15T06:32:45.704Z,95.23
2023-03-15T06:33:45.689Z,95.64
2023-03-15T06:34:45.674Z,95.43
2023-03-15T06:35:45.683Z,95.43
2023-03-15T06:36:45.651Z,95.75
2023-03-15T06:37:45.636Z,95.18
2023-03-15T06:38:45.650Z,95.02
2023-03-15T06:39:45.617Z,95.85
2023-03-15T06:40:45.613Z,95.12
2023-03-15T06:41:45.595Z,95.54
2023-03-15T06:42:45.586Z,95.29
2023-03-15T06:43:45.585Z,95.54
2023-03-15T06:44:45.575Z,95.54
2023-03-15T06:45:45.598Z,95.50
2023-03-15T06:46:45.546Z,95.50
2023-03-15T06:47:45.534Z,95.60
2023-03-15T06:48:45.535Z,95.33
2023-03-15T06:49:45.509Z,96.16
2023-03-15T06:50:47.696Z,96.06
2023-03-15T06:51:45.514Z,96.69
2023-03-15T06:52:45.482Z,96.79
2023-03-15T06:53:45.480Z,96.16
2023-03-15T06:54:45.482Z,96.37
2023-03-15T06:55:45.470Z,96.69
2023-03-15T06:56:45.454Z,96.58
2023-03-15T06:57:45.432Z,96.16
2023-03-15T06:58:45.470Z,96.58
2023-03-15T06:59:45.413Z,96.06
2023-03-15T07:00:45.396Z,97.00
2023-03-15T07:01:45.422Z,97.00
2023-03-15T07:02:45.435Z,97.20
2023-03-15T07:03:45.389Z,98.14
2023-03-15T07:04:45.368Z,97.52
2023-03-15T07:05:45.344Z,97.00
2023-03-15T07:06:45.338Z,96.58
2023-03-15T07:07:45.329Z,96.89
2023-03-15T07:08:45.328Z,96.06
2023-03-15T07:09:45.302Z,96.43
2023-03-15T07:10:45.318Z,96.85
2023-03-15T07:11:45.288Z,96.64
2023-03-15T07:12:45.287Z,96.75
2023-03-15T07:13:45.300Z,96.48
2023-03-15T07:14:45.256Z,96.75
2023-03-15T07:15:45.275Z,96.79
2023-03-15T07:16:45.238Z,96.53
2023-03-15T07:17:45.223Z,96.43
2023-03-15T07:18:45.233Z,96.53
2023-03-15T07:19:55.833Z,96.22
2023-03-15T07:20:46.200Z,96.59
2023-03-15T07:21:45.183Z,96.08
2023-03-15T07:22:45.180Z,96.33
2023-03-15T07:23:45.179Z,96.43
2023-03-15T07:24:45.152Z,96.64
2023-03-15T07:25:54.845Z,96.64
2023-03-15T07:26:46.167Z,96.75
2023-03-15T07:27:45.124Z,96.79
2023-03-15T07:28:45.119Z,96.53
2023-03-15T07:29:45.118Z,96.53
2023-03-15T07:30:45.567Z,96.64
2023-03-15T07:31:45.087Z,96.64
2023-03-15T07:32:45.190Z,96.33
2023-03-15T07:33:45.078Z,97.06
2023-03-15T07:34:45.054Z,97.01
2023-03-15T07:35:45.100Z,97.33
2023-03-15T07:36:45.026Z,96.64
2023-03-15T07:37:45.085Z,96.91
2023-03-15T07:38:45.019Z,96.70
2023-03-15T07:39:44.997Z,97.01
2023-03-15T07:40:44.985Z,97.12
2023-03-15T07:41:46.895Z,96.86
2023-03-15T07:42:44.960Z,96.86
2023-03-15T07:43:44.967Z,96.24
2023-03-15T07:44:44.944Z,96.24
2023-03-15T07:45:44.927Z,95.40
2023-03-15T07:46:44.953Z,95.72
2023-03-15T07:47:44.908Z,95.30
2023-03-15T07:48:44.940Z,95.51
2023-03-15T07:49:44.889Z,95.40
2023-03-15T07:50:44.933Z,95.72
2023-03-15T07:51:44.863Z,95.72
2023-03-15T07:52:44.857Z,95.51
2023-03-15T07:53:44.871Z,95.09
2023-03-15T07:54:44.863Z,96.03
2023-03-15T07:55:44.839Z,96.24
2023-03-15T07:56:44.811Z,95.87
2023-03-15T07:57:44.803Z,95.97
2023-03-15T07:58:44.796Z,95.87
2023-03-15T07:59:44.820Z,96.49
2023-03-15T08:00:44.783Z,96.14
2023-03-15T08:01:44.812Z,96.24
2023-03-15T08:02:44.814Z,96.30
2023-03-15T08:03:44.755Z,96.51
2023-03-15T08:04:44.727Z,96.61
2023-03-15T08:05:44.722Z,96.47
2023-03-15T08:06:44.704Z,96.25
2023-03-15T08:07:44.709Z,96.62
2023-03-15T08:08:44.700Z,96.31
2023-03-15T08:09:44.687Z,94.86
2023-03-15T08:10:44.666Z,94.55
2023-03-15T08:11:45.715Z,94.13
2023-03-15T08:12:44.698Z,94.18
2023-03-15T08:13:44.670Z,95.21
2023-03-15T08:14:44.630Z,95.63
2023-03-15T08:15:44.626Z,95.59
2023-03-15T08:16:44.707Z,95.59
2023-03-15T08:17:44.617Z,94.24
2023-03-15T08:18:44.593Z,95.38
2023-03-15T08:19:44.584Z,94.96
2023-03-15T08:20:44.569Z,94.96
2023-03-15T08:21:44.550Z,94.96
2023-03-15T08:22:44.596Z,94.82
2023-03-15T08:23:44.547Z,94.09
2023-03-15T08:27:18.129Z,92.90
2023-03-15T08:28:18.056Z,92.74
2023-03-15T08:29:18.056Z,92.32
2023-03-15T08:30:18.026Z,92.38
2023-03-15T08:31:18.041Z,92.69
2023-03-15T08:32:18.005Z,92.18
2023-03-15T08:34:58.105Z,92.11
2023-03-15T08:35:44.137Z,92.84
2023-03-15T08:36:44.282Z,93.32
2023-03-15T08:37:43.934Z,93.12
2023-03-15T08:38:43.933Z,92.90
2023-03-15T08:39:43.952Z,92.28
2023-03-15T08:40:43.898Z,91.97
2023-03-15T08:41:43.895Z,91.66
2023-03-15T08:42:43.875Z,91.72
2023-03-15T08:43:43.886Z,91.52
2023-03-15T08:44:43.892Z,91.41
2023-03-15T08:46:00.315Z,90.54
2023-03-15T08:46:44.942Z,89.86
2023-03-15T08:47:43.839Z,90.27
2023-03-15T08:48:43.827Z,90.89
2023-03-15T08:49:43.857Z,90.52
2023-03-15T08:50:43.791Z,90.27
2023-03-15T08:51:43.779Z,90.00
2023-03-15T08:52:43.774Z,90.20
2023-03-15T08:53:43.775Z,91.24
2023-03-15T08:54:43.746Z,91.24
2023-03-15T08:55:43.742Z,90.62
2023-03-15T08:56:43.723Z,91.76
2023-03-15T08:57:43.714Z,91.76
2023-03-15T08:58:43.714Z,90.52
2023-03-15T08:59:43.801Z,91.76
2023-03-15T09:00:43.698Z,91.86
2023-03-15T09:01:43.678Z,91.76
2023-03-15T09:02:43.726Z,91.72
2023-03-15T09:03:43.657Z,92.35
2023-03-15T09:04:43.733Z,92.45
2023-03-15T09:05:43.635Z,91.93
2023-03-15T09:06:43.624Z,90.06
2023-03-15T09:07:43.608Z,90.69
2023-03-15T09:08:43.607Z,90.79
2023-03-15T09:09:43.590Z,89.96
2023-03-15T09:10:43.575Z,89.86
2023-03-15T09:11:43.570Z,89.86
2023-03-15T09:12:43.556Z,90.37
2023-03-15T09:13:43.562Z,89.81
2023-03-15T09:14:43.530Z,90.75
2023-03-15T09:15:43.673Z,89.86
2023-03-15T09:16:44.206Z,89.50
2023-03-15T09:17:43.501Z,90.69
2023-03-15T09:18:43.492Z,90.33
2023-03-15T09:19:43.492Z,89.54
2023-03-15T09:20:43.471Z,89.89
2023-03-15T09:21:44.899Z,89.89
2023-03-15T09:22:43.464Z,90.37
2023-03-15T09:23:45.066Z,89.89
2023-03-15T09:24:43.444Z,90.10
2023-03-15T09:25:43.430Z,90.56
2023-03-15T09:26:43.419Z,90.10
2023-03-15T09:27:43.401Z,90.93
2023-03-15T09:28:43.386Z,91.24
2023-03-15T09:29:43.395Z,91.66
2023-03-15T09:30:43.442Z,91.03
2023-03-15T09:31:43.366Z,91.83
2023-03-15T09:32:43.479Z,91.72
2023-03-15T09:33:43.338Z,92.41
2023-03-15T09:34:43.342Z,92.10
2023-03-15T09:35:43.337Z,90.79
2023-03-15T09:36:43.300Z,90.85
2023-03-15T09:37:43.298Z,91.06
2023-03-15T09:38:43.288Z,90.75
2023-03-15T09:39:43.293Z,90.39
2023-03-15T09:40:43.501Z,90.60
2023-03-15T09:41:43.267Z,90.91
2023-03-15T09:42:43.243Z,90.70
2023-03-15T09:43:43.643Z,90.77
2023-03-15T09:51:53.124Z,87.93
2023-03-15T09:52:53.117Z,87.52
2023-03-15T09:53:57.298Z,88.10
2023-03-15T09:54:53.189Z,85.68
2023-03-15T09:55:53.118Z,83.65
2023-03-15T09:59:50.175Z,86.73
2023-03-15T10:00:45.707Z,87.62
2023-03-15T10:01:45.219Z,86.28
2023-03-15T10:02:45.034Z,85.80
2023-03-15T10:03:45.053Z,86.09
2023-03-15T10:04:44.993Z,86.29
2023-03-15T10:05:44.971Z,86.67
2023-03-15T10:06:44.948Z,86.63
2023-03-15T10:07:44.930Z,85.66
2023-03-15T10:08:44.917Z,83.25
2023-03-15T10:09:44.926Z,87.66
2023-03-15T10:10:44.946Z,91.21
2023-03-15T10:14:37.984Z,80.45
2023-03-15T10:15:36.834Z,85.42
2023-03-15T10:16:36.822Z,79.64
2023-03-15T10:17:36.816Z,68.23
2023-03-15T10:18:36.803Z,66.42
2023-03-15T10:19:36.804Z,64.33
2023-03-15T10:20:36.783Z,65.97
2023-03-15T10:21:36.777Z,66.34
2023-03-15T10:22:37.507Z,66.43
2023-03-15T10:23:36.752Z,75.11
2023-03-15T10:24:36.744Z,77.19
2023-03-15T10:25:36.735Z,75.78
2023-03-15T10:26:36.719Z,67.83
2023-03-15T10:27:36.707Z,62.02
2023-03-15T10:28:37.239Z,61.05
2023-03-15T10:29:44.483Z,68.04
2023-03-15T10:30:36.891Z,63.92
2023-03-15T10:31:44.683Z,59.95
2023-03-15T10:32:37.692Z,63.85
2023-03-15T10:33:36.642Z,65.61
2023-03-15T10:35:05.531Z,68.78
2023-03-15T10:35:36.656Z,71.66
2023-03-15T10:36:36.627Z,70.36
2023-03-15T10:37:36.601Z,68.95
2023-03-15T10:38:36.629Z,73.81
2023-03-15T10:39:36.603Z,70.42
2023-03-15T10:40:36.581Z,72.38
2023-03-15T10:41:36.556Z,70.62
2023-03-15T10:42:36.824Z,71.45
2023-03-15T10:43:36.531Z,71.66
2023-03-15T10:44:36.525Z,70.94
2023-03-15T10:45:36.524Z,72.44
2023-03-15T10:46:36.526Z,72.44
2023-03-15T10:47:36.822Z,69.88
2023-03-15T10:48:36.483Z,68.62
2023-03-15T10:49:36.486Z,68.30
2023-03-15T10:50:36.469Z,68.51
2023-03-15T10:51:36.450Z,68.92
2023-03-15T10:52:36.441Z,68.78
2023-03-15T10:53:36.434Z,69.50
2023-03-15T10:54:36.417Z,68.68
2023-03-15T10:55:36.419Z,67.36
2023-03-15T10:56:36.405Z,70.76
2023-03-15T10:57:36.406Z,70.62
2023-03-15T10:58:36.384Z,74.74
2023-03-15T10:59:36.386Z,76.56
2023-03-15T11:00:36.399Z,76.52
2023-03-15T11:01:36.381Z,70.70
2023-03-15T11:02:36.358Z,68.19
2023-03-15T11:03:36.324Z,74.26
2023-03-15T11:04:36.315Z,67.77
2023-03-15T11:05:36.318Z,61.35
2023-03-15T11:06:36.287Z,61.69
2023-03-15T11:07:36.289Z,68.76
2023-03-15T11:08:36.268Z,66.82
2023-03-15T11:09:36.321Z,59.12
2023-03-15T11:10:36.285Z,67.03
2023-03-15T11:11:36.244Z,60.26
2023-03-15T11:12:36.228Z,68.40
2023-03-15T11:13:36.266Z,56.83
2023-03-15T11:14:36.215Z,59.96
2023-03-15T11:15:36.216Z,55.81
2023-03-15T11:16:36.328Z,56.60
2023-03-15T11:17:36.997Z,60.35
2023-03-15T11:18:36.168Z,61.26
2023-03-15T11:19:36.272Z,61.24
2023-03-15T11:20:36.161Z,61.19
2023-03-15T11:21:36.146Z,58.94
2023-03-15T11:22:36.925Z,61.32
2023-03-15T11:23:36.124Z,62.78
2023-03-15T11:24:36.142Z,62.19
2023-03-15T11:25:36.200Z,66.75
2023-03-15T11:29:34.700Z,63.70
2023-03-15T11:30:28.045Z,62.61
2023-03-15T11:31:28.061Z,61.69
2023-03-15T11:32:28.080Z,62.59
2023-03-15T11:33:28.022Z,63.68
2023-03-15T11:34:28.000Z,68.43
2023-03-15T11:35:28.007Z,64.01
2023-03-15T11:36:27.991Z,66.27
2023-03-15T11:37:27.973Z,66.94
2023-03-15T11:38:27.969Z,69.59
2023-03-15T11:39:27.959Z,69.34
2023-03-15T11:40:27.944Z,71.06
2023-03-15T11:41:28.183Z,72.09
2023-03-15T11:43:03.684Z,70.92
2023-03-15T11:43:27.910Z,70.79
2023-03-15T11:44:27.901Z,70.37
2023-03-15T11:45:27.951Z,71.69
2023-03-15T11:46:27.895Z,69.18
2023-03-15T11:47:27.867Z,68.84
2023-03-15T11:48:27.878Z,65.26
2023-03-15T11:49:34.689Z,63.03
2023-03-15T11:50:27.847Z,65.47
2023-03-15T11:51:28.055Z,66.71
2023-03-15T11:52:27.899Z,64.76
2023-03-15T11:53:27.857Z,62.55
2023-03-15T11:54:27.795Z,61.49
2023-03-15T11:55:27.786Z,60.72
2023-03-15T11:56:27.792Z,60.53
2023-03-15T11:57:27.769Z,58.02
2023-03-15T11:58:27.754Z,55.13
2023-03-15T11:59:27.740Z,54.92
2023-03-15T12:00:27.735Z,56.99
2023-03-15T12:01:27.741Z,59.94
2023-03-15T12:02:27.778Z,54.41
2023-03-15T12:03:27.810Z,57.81
2023-03-15T12:04:27.693Z,59.31
2023-03-15T12:05:27.681Z,54.18
2023-03-15T12:06:27.678Z,59.75
2023-03-15T12:07:27.665Z,63.07
2023-03-15T12:08:27.645Z,55.10
2023-03-15T12:09:27.640Z,45.60
2023-03-15T12:10:27.625Z,42.92
2023-03-15T12:11:27.632Z,46.14
2023-03-15T12:12:27.606Z,49.01
2023-03-15T12:13:27.589Z,50.59
2023-03-15T12:14:27.582Z,46.97
2023-03-15T12:15:27.629Z,46.17
2023-03-15T12:16:27.618Z,50.12
2023-03-15T12:17:27.545Z,44.46
2023-03-15T12:18:27.536Z,40.85
2023-03-15T12:19:27.522Z,41.50
2023-03-15T12:20:27.510Z,42.77
2023-03-15T12:21:28.646Z,44.28
2023-03-15T12:22:28.614Z,45.34
2023-03-15T12:23:28.606Z,49.29
2023-03-15T12:24:28.609Z,51.50
2023-03-15T12:25:28.583Z,49.19
2023-03-15T12:26:28.584Z,48.48
2023-03-15T12:27:28.570Z,52.90
2023-03-15T12:28:28.555Z,52.62
2023-03-15T12:29:29.540Z,48.44
2023-03-15T12:30:28.663Z,49.59
2023-03-15T12:31:28.551Z,50.95
2023-03-15T12:32:28.570Z,52.61
2023-03-15T12:40:31.528Z,56.74
2023-03-15T12:40:42.229Z,55.97
2023-03-15T12:41:42.137Z,51.84
2023-03-15T12:45:37.567Z,47.67
2023-03-15T12:46:35.067Z,47.07
2023-03-15T12:47:34.050Z,40.39
2023-03-15T12:49:59.962Z,42.41
2023-03-15T12:50:59.967Z,38.59
2023-03-15T12:52:00.442Z,38.37
2023-03-15T12:53:00.353Z,43.99
2023-03-15T12:54:00.081Z,41.40
2023-03-15T12:57:52.017Z,43.22
2023-03-15T12:58:51.929Z,46.64
2023-03-15T12:59:51.968Z,51.06
2023-03-15T13:00:52.015Z,46.84
2023-03-15T13:01:54.637Z,49.96
2023-03-15T13:02:52.330Z,51.93
2023-03-15T13:23:57.836Z,40.97
2023-03-15T13:24:56.678Z,39.17
2023-03-15T13:25:56.631Z,40.07
2023-03-15T13:26:59.346Z,40.44
2023-03-15T13:27:56.675Z,41.31
2023-03-15T13:28:56.677Z,47.39
2023-03-15T13:29:56.662Z,43.29
2023-03-15T13:30:56.667Z,43.90
2023-03-15T13:31:56.578Z,41.56
2023-03-15T13:32:56.645Z,41.19
2023-03-15T13:33:56.573Z,41.14
2023-03-15T13:34:56.534Z,45.14
2023-03-15T13:35:56.577Z,44.55
2023-03-15T13:36:56.510Z,43.75
2023-03-15T13:37:56.517Z,45.73
2023-03-15T13:38:56.485Z,44.76
2023-03-15T13:39:56.500Z,50.60
2023-03-15T13:40:56.474Z,48.39
2023-03-15T13:41:56.463Z,45.86
2023-03-15T13:42:57.740Z,50.50
2023-03-15T13:43:56.465Z,46.64
2023-03-15T13:44:56.427Z,48.38
2023-03-15T13:45:56.417Z,48.43
2023-03-15T13:46:56.436Z,46.38